Time;durP1;ratioP1;P1;durP2;ratioP2;P2;SDS_P1;SDS_P2;PMS_P1;PMS_P2;Temp;Humidity;BMP_temperature;BMP_pressure;BME280_temperature;BME280_humidity;BME280_pressure;Samples;Min_cycle;Max_cycle;Signal;HPM_P1;HPM_P2
2022/09/03 00:02:02;;;;;;;3.42;2.80;;;;;;;18.28;53.09;95352.63;4972581;28;20203;-79
2022/09/03 00:04:34;;;;;;;4.97;2.10;;;;;;;18.23;52.90;95357.75;4968262;28;20200;-84
2022/09/03 00:07:06;;;;;;;2.08;1.77;;;;;;;18.11;53.19;95354.34;4971210;28;20575;-84
2022/09/03 00:09:40;;;;;;;3.60;2.03;;;;;;;18.15;53.70;95353.66;4966433;28;20224;-84
2022/09/03 00:12:10;;;;;;;3.03;1.92;;;;;;;18.10;53.24;95353.53;4970938;28;20220;-84
2022/09/03 00:14:40;;;;;;;3.92;1.80;;;;;;;18.17;52.98;95353.44;4971209;28;20199;-84
2022/09/03 00:17:10;;;;;;;3.25;1.60;;;;;;;18.13;53.38;95352.31;4971912;28;20668;-85
2022/09/03 00:19:41;;;;;;;2.10;1.90;;;;;;;18.21;53.06;95357.19;4972274;28;20235;-84
2022/09/03 00:22:13;;;;;;;1.85;1.75;;;;;;;18.20;52.95;95359.00;4971371;28;20204;-84
2022/09/03 00:24:43;;;;;;;2.10;1.90;;;;;;;18.24;53.11;95359.31;4971587;28;20199;-84
2022/09/03 00:27:16;;;;;;;2.35;1.30;;;;;;;18.24;53.60;95354.91;4972025;28;20668;-84
2022/09/03 00:29:48;;;;;;;2.58;1.83;;;;;;;18.15;53.83;95351.06;4971440;28;20229;-84
2022/09/03 00:32:22;;;;;;;2.10;1.70;;;;;;;18.19;53.37;95343.56;4970909;28;20228;-84
2022/09/03 00:34:54;;;;;;;2.38;1.60;;;;;;;18.18;53.50;95339.38;4971440;28;20723;-84
2022/09/03 00:37:23;;;;;;;2.55;1.63;;;;;;;18.22;53.33;95343.13;4970333;28;20192;-84
2022/09/03 00:39:50;;;;;;;2.42;1.58;;;;;;;18.28;53.43;95340.38;4971678;28;20271;-84
2022/09/03 00:42:39;;;;;;;3.35;1.60;;;;;;;18.19;53.72;95339.16;4970337;28;20200;-84
2022/09/03 00:45:24;;;;;;;2.08;1.88;;;;;;;18.05;54.15;95337.84;4973789;28;20239;-84
2022/09/03 00:48:04;;;;;;;2.10;1.60;;;;;;;18.05;54.62;95337.84;4974367;28;20204;-84
2022/09/03 00:50:44;;;;;;;2.42;1.90;;;;;;;18.15;54.33;95340.63;4969788;28;20216;-84
2022/09/03 00:53:16;;;;;;;1.60;1.50;;;;;;;18.16;53.91;95339.63;4974101;28;20698;-84
2022/09/03 00:55:55;;;;;;;2.00;1.73;;;;;;;18.12;53.80;95341.09;4974098;28;20314;-84
2022/09/03 00:58:39;;;;;;;1.98;1.75;;;;;;;18.06;54.47;95341.22;4973248;28;20291;-84
2022/09/03 01:01:14;;;;;;;2.75;1.80;;;;;;;17.92;54.63;95351.88;4973216;28;20302;-84
2022/09/03 01:03:53;;;;;;;2.55;1.80;;;;;;;17.92;54.90;95349.25;4974045;28;20200;-83
2022/09/03 01:06:24;;;;;;;2.17;1.80;;;;;;;17.95;54.66;95359.22;4973144;28;20223;-84
2022/09/03 01:09:18;;;;;;;2.05;1.67;;;;;;;17.91;55.49;95349.50;4973783;28;20211;-84
2022/09/03 01:11:58;;;;;;;1.80;1.70;;;;;;;17.93;55.14;95348.25;4969306;28;20224;-84
2022/09/03 01:14:38;;;;;;;5.60;1.90;;;;;;;17.89;55.39;95349.75;4973762;28;20208;-84
2022/09/03 01:17:13;;;;;;;2.25;1.70;;;;;;;17.83;55.38;95353.25;4973655;28;20638;-84
2022/09/03 01:19:59;;;;;;;2.17;1.80;;;;;;;17.87;55.86;95351.00;4968249;28;20737;-85
2022/09/03 01:23:19;;;;;;;1.60;1.50;;;;;;;17.91;55.72;95342.47;4972351;28;20211;-84
2022/09/03 01:25:56;;;;;;;1.75;1.65;;;;;;;17.81;55.82;95352.69;4965327;28;20258;-84
2022/09/03 01:28:46;;;;;;;1.83;1.73;;;;;;;17.83;55.79;95352.47;4974100;28;20211;-84
2022/09/03 01:31:25;;;;;;;3.15;1.77;;;;;;;17.85;55.49;95345.22;4973181;28;20204;-84
2022/09/03 01:34:00;;;;;;;1.73;1.63;;;;;;;17.81;55.58;95354.50;4974034;28;20204;-84
2022/09/03 01:36:34;;;;;;;2.03;1.83;;;;;;;17.90;55.64;95353.13;4974422;28;20223;-84
2022/09/03 01:39:04;;;;;;;1.92;1.75;;;;;;;17.79;55.97;95352.13;4975536;28;20208;-84
2022/09/03 01:44:39;;;;;;;1.92;1.73;;;;;;;17.64;56.09;95340.53;4974393;28;20610;-85
2022/09/03 01:47:18;;;;;;;2.22;1.83;;;;;;;17.55;56.49;95332.25;4976299;28;20275;-84
2022/09/03 01:49:56;;;;;;;1.85;1.75;;;;;;;17.47;56.89;95333.41;4974262;28;20231;-84
2022/09/03 01:52:37;;;;;;;3.97;2.25;;;;;;;17.45;56.85;95345.84;4976234;28;20643;-84
2022/09/03 01:55:13;;;;;;;2.10;1.90;;;;;;;17.48;56.93;95344.59;4974663;28;20232;-84
2022/09/03 01:57:48;;;;;;;3.50;1.90;;;;;;;17.38;57.00;95341.75;4970613;28;20572;-84
2022/09/03 02:00:19;;;;;;;2.70;2.00;;;;;;;17.49;56.85;95343.59;4974263;28;20232;-84
2022/09/03 02:02:49;;;;;;;2.30;2.10;;;;;;;17.44;56.92;95341.66;4975017;28;20193;-84
2022/09/03 02:05:19;;;;;;;2.45;2.20;;;;;;;17.55;56.77;95335.66;4967964;28;20261;-84
2022/09/03 02:07:47;;;;;;;2.88;1.90;;;;;;;17.52;56.92;95335.31;4974620;28;20702;-84
2022/09/03 02:10:16;;;;;;;2.38;2.00;;;;;;;17.58;57.19;95329.22;4973649;28;20223;-84
2022/09/03 02:12:47;;;;;;;2.08;1.88;;;;;;;17.56;57.33;95336.44;4974320;28;20223;-84
2022/09/03 02:15:18;;;;;;;2.20;2.00;;;;;;;17.44;57.93;95331.25;4974281;28;20231;-84
2022/09/03 02:17:48;;;;;;;2.00;1.90;;;;;;;17.38;58.16;95329.53;4975034;28;20820;-84
2022/09/03 02:20:19;;;;;;;2.92;2.05;;;;;;;17.45;58.18;95332.03;4973141;28;20239;-84
2022/09/03 02:22:48;;;;;;;2.35;1.90;;;;;;;17.36;58.50;95325.56;4975031;28;20216;-84
2022/09/03 02:25:15;;;;;;;2.22;2.00;;;;;;;17.27;58.88;95327.72;4973781;28;20228;-84
2022/09/03 02:27:42;;;;;;;2.85;2.20;;;;;;;17.20;58.49;95333.00;4974308;28;20200;-84
2022/09/03 02:30:10;;;;;;;2.63;2.20;;;;;;;17.11;59.70;95339.56;4973731;28;20271;-84
2022/09/03 02:32:38;;;;;;;3.75;1.80;;;;;;;16.93;60.29;95343.00;4968375;28;20212;-84
2022/09/03 02:35:05;;;;;;;2.40;2.10;;;;;;;17.00;60.35;95342.13;4973807;28;20230;-84
2022/09/03 02:37:32;;;;;;;2.90;2.00;;;;;;;17.15;59.60;95347.69;4974222;28;20219;-84
2022/09/03 02:39:58;;;;;;;4.10;2.20;;;;;;;17.16;59.90;95341.47;4974249;28;20220;-84
2022/09/03 02:42:25;;;;;;;1.92;1.80;;;;;;;17.13;60.25;95344.53;4973448;28;20188;-84
2022/09/03 02:44:55;;;;;;;3.03;2.60;;;;;;;17.13;59.91;95345.31;4973646;28;20232;-84
2022/09/03 02:47:23;;;;;;;2.63;2.17;;;;;;;17.10;60.51;95345.78;4974022;28;20196;-84
2022/09/03 02:49:51;;;;;;;2.20;2.00;;;;;;;17.15;60.00;95350.31;4973764;28;20227;-84
2022/09/03 02:52:17;;;;;;;3.28;2.20;;;;;;;16.97;60.78;95351.16;4973124;28;20234;-84
2022/09/03 02:54:44;;;;;;;4.03;2.22;;;;;;;16.89;61.29;95341.88;4973157;28;20236;-84
2022/09/03 02:57:14;;;;;;;2.80;2.10;;;;;;;16.70;61.97;95329.16;4973585;28;20230;-84
2022/09/03 02:59:42;;;;;;;2.97;2.15;;;;;;;16.71;62.07;95335.94;4968031;28;20421;-84
2022/09/03 03:02:09;;;;;;;2.70;2.15;;;;;;;16.57;62.79;95327.47;4973323;28;20193;-84
2022/09/03 03:04:36;;;;;;;2.88;2.00;;;;;;;16.62;62.32;95329.41;4973334;28;20208;-84
2022/09/03 03:07:04;;;;;;;2.60;2.17;;;;;;;16.67;62.67;95332.97;4974226;28;20225;-84
2022/09/03 03:09:31;;;;;;;2.20;1.77;;;;;;;16.76;62.21;95336.84;4974203;28;20236;-84
2022/09/03 03:11:57;;;;;;;2.50;2.30;;;;;;;16.83;62.39;95334.16;4973376;28;20220;-84
2022/09/03 03:14:24;;;;;;;2.40;2.20;;;;;;;16.81;62.40;95333.59;4974039;28;20211;-85
2022/09/03 03:16:50;;;;;;;2.35;2.15;;;;;;;16.73;62.31;95333.91;4974380;28;20208;-84
2022/09/03 03:19:17;;;;;;;2.10;2.00;;;;;;;16.52;63.08;95340.34;4973834;28;20216;-84
2022/09/03 03:21:44;;;;;;;2.85;2.40;;;;;;;16.64;62.97;95335.22;4972794;28;20203;-84
2022/09/03 03:24:12;;;;;;;2.72;2.20;;;;;;;16.59;63.05;95339.22;4972722;28;20196;-83
2022/09/03 03:26:39;;;;;;;3.15;2.35;;;;;;;16.49;63.15;95333.78;4966225;28;20244;-84
2022/09/03 03:29:05;;;;;;;3.33;2.45;;;;;;;16.49;63.63;95333.78;4972284;28;20617;-84
2022/09/03 03:31:32;;;;;;;2.50;2.20;;;;;;;16.69;62.65;95336.16;4974332;28;20196;-85
2022/09/03 03:34:01;;;;;;;2.40;2.20;;;;;;;16.71;62.85;95341.94;4975682;28;20216;-84
2022/09/03 03:36:30;;;;;;;2.85;2.30;;;;;;;16.71;62.72;95339.34;4974649;28;20235;-85
2022/09/03 03:38:59;;;;;;;4.35;2.38;;;;;;;16.64;62.90;95341.22;4975309;28;20200;-84
2022/09/03 03:41:30;;;;;;;2.60;2.30;;;;;;;16.75;62.73;95347.47;4974978;28;20200;-84
2022/09/03 03:43:57;;;;;;;3.22;2.05;;;;;;;16.84;62.22;95346.16;4976193;28;20708;-84
2022/09/03 03:46:25;;;;;;;2.90;2.00;;;;;;;16.77;63.06;95342.84;4975407;28;20224;-85
2022/09/03 03:48:52;;;;;;;4.32;2.15;;;;;;;16.61;63.65;95343.41;4974932;28;20215;-85
2022/09/03 03:51:19;;;;;;;6.30;2.60;;;;;;;16.55;63.47;95350.28;4974985;28;20192;-85
2022/09/03 03:53:46;;;;;;;2.85;2.63;;;;;;;16.47;63.96;95351.38;4975396;28;20223;-85
2022/09/03 03:56:15;;;;;;;2.47;2.28;;;;;;;16.39;64.88;95338.69;4974854;28;20220;-85
2022/09/03 03:58:43;;;;;;;2.72;2.40;;;;;;;16.39;64.29;95340.50;4969702;28;20200;-84
2022/09/03 04:01:11;;;;;;;2.60;2.40;;;;;;;16.31;64.82;95344.19;4974378;28;20215;-84
2022/09/03 04:03:38;;;;;;;2.90;2.42;;;;;;;16.38;64.46;95333.69;4975262;28;20288;-84
2022/09/03 04:06:05;;;;;;;3.65;2.65;;;;;;;16.34;64.69;95330.78;4974418;28;20227;-85
2022/09/03 04:08:35;;;;;;;2.53;2.28;;;;;;;16.45;63.69;95329.22;4974945;28;20207;-84
2022/09/03 04:11:03;;;;;;;2.45;2.25;;;;;;;16.56;63.21;95326.66;4975154;28;20223;-84
2022/09/03 04:13:30;;;;;;;4.00;2.58;;;;;;;16.66;62.92;95325.41;4975492;28;20215;-84
2022/09/03 04:16:02;;;;;;;3.15;2.50;;;;;;;16.85;62.10;95334.75;4974842;28;20243;-84
2022/09/03 04:18:28;;;;;;;4.80;2.33;;;;;;;16.83;62.36;95334.94;4975505;28;20215;-84
2022/09/03 04:20:59;;;;;;;2.90;2.50;;;;;;;16.81;62.44;95343.97;4979020;28;20219;-84
2022/09/03 04:23:26;;;;;;;2.47;2.28;;;;;;;16.77;62.23;95342.84;4980108;28;20200;-85
2022/09/03 04:25:53;;;;;;;3.35;2.58;;;;;;;16.74;62.07;95348.50;4979051;28;20220;-85
2022/09/03 04:28:19;;;;;;;3.30;2.60;;;;;;;16.81;62.02;95349.97;4979295;28;20570;-84
2022/09/03 04:30:45;;;;;;;2.63;2.42;;;;;;;16.69;62.22;95340.56;4979333;28;20227;-84
2022/09/03 04:33:13;;;;;;;2.97;2.65;;;;;;;16.65;62.49;95345.41;4978896;28;20215;-81
2022/09/03 04:35:40;;;;;;;2.80;2.50;;;;;;;16.69;62.62;95346.56;4979014;28;20239;-85
2022/09/03 04:38:07;;;;;;;3.40;2.67;;;;;;;16.74;62.39;95356.31;4978235;28;20201;-84
2022/09/03 04:40:33;;;;;;;2.88;2.53;;;;;;;16.87;62.40;95363.91;4978237;28;20222;-84
2022/09/03 04:43:00;;;;;;;2.50;2.30;;;;;;;16.90;61.85;95368.69;4978777;28;20203;-85
2022/09/03 04:45:27;;;;;;;2.42;2.22;;;;;;;16.92;62.55;95367.44;4977671;28;20255;-85
2022/09/03 04:47:58;;;;;;;2.85;2.50;;;;;;;16.83;62.93;95363.56;4975070;28;20261;-85
2022/09/03 04:50:26;;;;;;;3.83;2.40;;;;;;;16.89;62.64;95369.69;4978963;28;20216;-85
2022/09/03 04:52:55;;;;;;;2.63;2.38;;;;;;;17.05;61.90;95368.28;4979030;28;20220;-85
2022/09/03 04:55:22;;;;;;;2.88;2.40;;;;;;;17.01;62.26;95377.53;4978438;28;20228;-84
2022/09/03 04:57:48;;;;;;;4.45;2.60;;;;;;;17.03;62.47;95378.09;4978740;28;20212;-84
2022/09/03 05:00:17;;;;;;;2.67;2.47;;;;;;;17.10;62.61;95384.81;4977496;28;20212;-84
2022/09/03 05:02:45;;;;;;;4.63;2.78;;;;;;;17.27;61.76;95387.56;4977283;28;20284;-84
2022/09/03 05:05:12;;;;;;;2.53;2.30;;;;;;;17.34;62.39;95384.84;4977169;28;20259;-84
2022/09/03 05:07:40;;;;;;;2.50;2.30;;;;;;;17.45;61.96;95384.09;4978198;28;20216;-85
2022/09/03 05:10:09;;;;;;;3.65;2.33;;;;;;;17.55;61.77;95395.53;4972139;28;20235;-84
2022/09/03 05:12:35;;;;;;;2.40;2.20;;;;;;;17.58;61.86;95389.88;4976778;28;20315;-84
2022/09/03 05:15:04;;;;;;;2.30;2.10;;;;;;;17.62;62.36;95390.22;4976317;28;20802;-85
2022/09/03 05:17:30;;;;;;;3.33;2.13;;;;;;;17.69;62.60;95392.78;4977251;28;20200;-85
2022/09/03 05:19:57;;;;;;;2.65;2.10;;;;;;;17.71;62.61;95399.31;4977232;28;20247;-85
2022/09/03 05:22:23;;;;;;;2.78;2.13;;;;;;;17.69;63.35;95405.78;4976673;28;20208;-84
2022/09/03 05:24:51;;;;;;;2.38;2.00;;;;;;;17.74;62.84;95416.31;4976825;28;20231;-85
2022/09/03 05:27:18;;;;;;;2.50;2.30;;;;;;;17.78;62.67;95423.44;4976741;28;20196;-84
2022/09/03 05:29:45;;;;;;;3.30;2.50;;;;;;;17.80;62.75;95429.22;4975804;28;20588;-84
2022/09/03 05:32:12;;;;;;;2.55;2.35;;;;;;;17.77;62.63;95423.66;4975609;28;20208;-85
2022/09/03 05:34:39;;;;;;;2.25;2.10;;;;;;;17.73;63.09;95423.31;4976057;28;20216;-85
2022/09/03 05:37:05;;;;;;;4.07;2.70;;;;;;;17.86;62.71;95417.91;4976478;28;20301;-84
2022/09/03 05:39:32;;;;;;;4.32;2.40;;;;;;;17.88;62.26;95412.47;4976558;28;20231;-84
2022/09/03 05:42:00;;;;;;;2.30;2.10;;;;;;;17.92;61.89;95424.00;4975877;28;20216;-85
2022/09/03 05:44:26;;;;;;;2.80;2.55;;;;;;;17.84;62.29;95414.75;4975260;28;20188;-84
2022/09/03 05:46:54;;;;;;;2.40;2.20;;;;;;;17.91;61.85;95419.81;4976479;28;20200;-84
2022/09/03 05:49:21;;;;;;;4.82;2.67;;;;;;;17.98;61.45;95423.13;4976573;28;20220;-84
2022/09/03 05:51:47;;;;;;;4.00;2.30;;;;;;;18.01;61.12;95420.06;4970522;28;20234;-83
2022/09/03 05:54:14;;;;;;;2.75;2.55;;;;;;;17.94;61.77;95424.59;4977844;28;20243;-83
2022/09/03 05:56:41;;;;;;;2.42;2.20;;;;;;;17.89;62.14;95421.88;4976955;28;20279;-84
2022/09/03 05:59:10;;;;;;;2.80;2.60;;;;;;;17.90;62.11;95426.06;4976586;28;20256;-84
2022/09/03 06:01:38;;;;;;;3.97;2.58;;;;;;;17.78;62.60;95425.25;4975487;28;20192;-84
2022/09/03 06:04:06;;;;;;;4.05;2.65;;;;;;;17.85;62.10;95429.34;4975826;28;20223;-84
2022/09/03 06:06:34;;;;;;;3.40;2.85;;;;;;;17.88;61.82;95434.13;4973994;28;20240;-84
2022/09/03 06:09:03;;;;;;;3.45;2.75;;;;;;;17.78;62.92;95433.88;4976175;28;20188;-85
2022/09/03 06:11:31;;;;;;;3.00;2.70;;;;;;;17.58;64.13;95426.31;4975579;28;20203;-84
2022/09/03 06:14:00;;;;;;;3.83;2.53;;;;;;;17.71;63.10;95430.56;4972584;28;20222;-85
2022/09/03 06:16:28;;;;;;;2.88;2.50;;;;;;;17.66;63.20;95442.69;4973379;28;20306;-84
2022/09/03 06:18:55;;;;;;;2.67;2.40;;;;;;;17.75;62.70;95425.69;4974341;28;20196;-84
2022/09/03 06:21:21;;;;;;;5.05;3.13;;;;;;;17.64;63.67;95426.47;4973496;28;20293;-84
2022/09/03 06:23:50;;;;;;;3.00;2.80;;;;;;;17.60;64.73;95424.31;4968196;28;20200;-84
2022/09/03 06:26:17;;;;;;;4.78;2.63;;;;;;;17.48;64.64;95433.91;4974432;28;20945;-84
2022/09/03 06:28:44;;;;;;;3.00;2.70;;;;;;;17.48;65.09;95433.13;4974548;28;20212;-83
2022/09/03 06:31:13;;;;;;;3.45;2.80;;;;;;;17.52;63.81;95435.03;4973693;28;20240;-84
2022/09/03 06:33:41;;;;;;;4.95;2.78;;;;;;;17.43;63.92;95435.56;4973042;28;20227;-85
2022/09/03 06:36:10;;;;;;;3.25;2.95;;;;;;;17.27;65.80;95439.63;4973427;28;20246;-84
2022/09/03 06:38:38;;;;;;;3.67;3.15;;;;;;;17.16;66.89;95442.94;4973059;28;20668;-84
2022/09/03 06:41:06;;;;;;;3.00;2.80;;;;;;;17.25;66.29;95446.84;4973718;28;20220;-84
2022/09/03 06:43:34;;;;;;;3.83;2.30;;;;;;;17.44;65.41;95456.19;4975258;28;20200;-84
2022/09/03 06:46:03;;;;;;;3.20;2.40;;;;;;;17.58;65.04;95452.38;4975302;28;20227;-85
2022/09/03 06:48:32;;;;;;;4.38;2.47;;;;;;;17.67;65.03;95455.47;4974368;28;20212;-84
2022/09/03 06:51:02;;;;;;;2.78;2.58;;;;;;;17.69;65.43;95463.06;4974130;28;20220;-85
2022/09/03 06:53:30;;;;;;;5.22;2.65;;;;;;;17.68;65.71;95466.69;4974717;28;20251;-84
2022/09/03 06:55:58;;;;;;;2.60;2.40;;;;;;;17.77;65.18;95467.94;4974133;28;20227;-85
2022/09/03 06:58:28;;;;;;;4.45;2.47;;;;;;;17.78;65.11;95462.50;4972196;28;20195;-84
2022/09/03 07:01:01;;;;;;;2.97;2.65;;;;;;;17.81;65.08;95467.28;4971063;28;20692;-84
2022/09/03 07:03:27;;;;;;;3.65;2.58;;;;;;;17.81;64.72;95471.69;4974417;28;20196;-84
2022/09/03 07:05:54;;;;;;;3.00;2.70;;;;;;;17.73;65.59;95467.59;4973572;28;20282;-85
2022/09/03 07:08:22;;;;;;;2.78;2.30;;;;;;;17.76;65.59;95467.16;4973728;28;20679;-84
2022/09/03 07:10:50;;;;;;;4.78;2.40;;;;;;;17.82;65.20;95470.69;4973488;28;20216;-84
2022/09/03 07:13:17;;;;;;;3.15;2.70;;;;;;;17.87;64.88;95465.59;4973325;28;20219;-84
2022/09/03 07:15:44;;;;;;;5.35;2.50;;;;;;;17.84;64.69;95464.22;4974071;28;20235;-85
2022/09/03 07:18:10;;;;;;;3.30;2.75;;;;;;;17.88;64.56;95478.41;4973165;28;20204;-84
2022/09/03 07:20:37;;;;;;;3.53;2.53;;;;;;;17.90;64.56;95478.94;4973651;28;20595;-84
2022/09/03 07:23:03;;;;;;;3.13;2.83;;;;;;;17.98;63.90;95471.81;4974032;28;20212;-84
2022/09/03 07:25:31;;;;;;;3.15;2.60;;;;;;;17.99;64.03;95473.41;4973786;28;20224;-84
2022/09/03 07:27:58;;;;;;;2.83;2.50;;;;;;;18.03;63.43;95466.75;4974276;28;20196;-85
2022/09/03 07:30:25;;;;;;;4.72;2.65;;;;;;;18.05;63.54;95469.91;4971139;28;20224;-85
2022/09/03 07:32:52;;;;;;;2.92;2.60;;;;;;;18.09;63.96;95471.06;4974539;28;20912;-85
2022/09/03 07:35:19;;;;;;;3.35;2.40;;;;;;;18.11;63.81;95466.38;4973325;28;20227;-84
2022/09/03 07:37:45;;;;;;;3.00;2.70;;;;;;;18.19;64.31;95463.47;4971580;28;20204;-85
2022/09/03 07:40:12;;;;;;;2.85;2.65;;;;;;;18.14;65.03;95468.53;4971523;28;20224;-83
2022/09/03 07:42:43;;;;;;;3.95;2.42;;;;;;;18.18;64.62;95467.88;4971022;28;20204;-84
2022/09/03 07:45:11;;;;;;;2.85;2.58;;;;;;;18.19;64.68;95473.88;4970366;28;20236;-84
2022/09/03 07:47:38;;;;;;;2.72;2.53;;;;;;;18.14;65.79;95461.53;4970417;28;20208;-84
2022/09/03 07:50:05;;;;;;;4.25;2.33;;;;;;;18.19;64.99;95474.69;4963864;28;20224;-85
2022/09/03 07:52:32;;;;;;;2.80;2.30;;;;;;;18.27;64.59;95474.34;4970899;28;20227;-84
2022/09/03 07:54:58;;;;;;;5.70;2.58;;;;;;;18.32;64.69;95478.06;4970037;28;20356;-84
2022/09/03 07:57:25;;;;;;;4.07;2.50;;;;;;;18.35;64.37;95475.00;4970678;28;20228;-85
2022/09/03 07:59:53;;;;;;;3.17;2.33;;;;;;;18.35;64.66;95470.59;4963430;28;20216;-84
2022/09/03 08:02:19;;;;;;;2.60;2.40;;;;;;;18.36;64.04;95477.38;4967951;28;20204;-85
2022/09/03 08:04:45;;;;;;;2.70;2.50;;;;;;;18.42;63.89;95479.09;4969159;28;20231;-83
2022/09/03 08:07:12;;;;;;;3.10;2.85;;;;;;;18.43;64.20;95477.28;4970227;28;20203;-84
2022/09/03 08:09:43;;;;;;;2.53;2.30;;;;;;;18.48;64.15;95485.19;4972581;28;20228;-84
2022/09/03 08:12:10;;;;;;;3.42;2.78;;;;;;;18.52;63.99;95494.16;4971762;28;20196;-83
2022/09/03 08:14:37;;;;;;;3.13;2.67;;;;;;;18.57;64.12;95481.22;4972543;28;20224;-85
2022/09/03 08:17:06;;;;;;;3.17;2.88;;;;;;;18.65;64.50;95491.34;4972092;28;20220;-85
2022/09/03 08:19:32;;;;;;;2.80;2.60;;;;;;;18.65;65.10;95490.56;4970808;28;20251;-84
2022/09/03 08:22:00;;;;;;;4.70;2.75;;;;;;;18.71;65.07;95487.03;4969583;28;20200;-84
2022/09/03 08:24:26;;;;;;;3.65;3.20;;;;;;;18.74;66.42;95483.97;4970887;28;20193;-84
2022/09/03 08:26:52;;;;;;;3.15;2.78;;;;;;;18.97;65.88;95482.09;4970768;28;20212;-84
2022/09/03 08:29:20;;;;;;;3.22;2.90;;;;;;;19.07;66.20;95483.31;4967693;28;20223;-84
2022/09/03 08:31:47;;;;;;;6.90;3.63;;;;;;;19.08;66.89;95488.28;4969048;28;20196;-85
2022/09/03 08:34:16;;;;;;;3.05;2.85;;;;;;;19.16;66.47;95482.72;4970224;28;20623;-84
2022/09/03 08:36:43;;;;;;;5.45;3.42;;;;;;;19.21;67.08;95488.03;4968874;28;20239;-84
2022/09/03 08:39:11;;;;;;;3.08;2.88;;;;;;;19.25;66.85;95483.13;4969933;28;20239;-83
2022/09/03 08:42:02;;;;;;;3.92;3.08;;;;;;;19.35;67.13;95479.94;4967996;28;20201;-84
2022/09/03 08:44:31;;;;;;;3.30;3.00;;;;;;;19.55;66.11;95469.88;4967488;28;20220;-85
2022/09/03 08:47:02;;;;;;;3.28;2.97;;;;;;;19.66;66.45;95466.41;4966176;28;20808;-84
2022/09/03 08:49:37;;;;;;;3.60;3.30;;;;;;;19.86;67.10;95469.34;4969500;28;20283;-84
2022/09/03 08:52:10;;;;;;;4.88;3.50;;;;;;;20.00;66.20;95472.47;4963818;28;20204;-85
2022/09/03 08:54:37;;;;;;;6.35;4.35;;;;;;;20.19;65.75;95471.19;4969232;28;20322;-85
2022/09/03 08:57:05;;;;;;;3.67;3.38;;;;;;;20.72;65.04;95463.81;4969656;28;20200;-84
2022/09/03 08:59:32;;;;;;;3.75;3.45;;;;;;;21.42;62.90;95469.09;4969281;28;20224;-84
2022/09/03 09:02:06;;;;;;;5.18;3.30;;;;;;;21.79;61.00;95468.38;4965723;28;20201;-84
2022/09/03 09:04:47;;;;;;;3.42;3.13;;;;;;;21.89;61.52;95464.03;4969640;28;20623;-84
2022/09/03 09:07:21;;;;;;;3.40;3.10;;;;;;;21.74;61.29;95460.50;4968953;28;20195;-85
2022/09/03 09:09:59;;;;;;;3.65;3.08;;;;;;;21.51;61.92;95465.00;4973265;28;20311;-84
2022/09/03 09:12:35;;;;;;;3.10;2.85;;;;;;;21.30;62.91;95469.22;4972630;28;20196;-84
2022/09/03 09:15:11;;;;;;;3.28;3.00;;;;;;;21.07;64.07;95468.69;4966989;28;20622;-84
2022/09/03 09:17:58;;;;;;;3.17;2.88;;;;;;;21.03;64.08;95463.94;4972546;28;20619;-85
2022/09/03 09:20:35;;;;;;;3.83;3.15;;;;;;;21.07;64.06;95459.00;4972455;28;20216;-83
2022/09/03 09:23:05;;;;;;;3.67;2.80;;;;;;;21.23;63.29;95454.75;4967161;28;20200;-84
2022/09/03 09:25:34;;;;;;;6.68;6.05;;;;;;;21.40;63.44;95442.34;4972449;28;20247;-84
2022/09/03 09:28:08;;;;;;;5.43;5.03;;;;;;;21.45;62.15;95447.63;4966613;28;20231;-84
2022/09/03 09:30:34;;;;;;;3.20;3.00;;;;;;;21.56;62.29;95440.66;4972149;28;20739;-84
2022/09/03 09:33:01;;;;;;;3.70;2.60;;;;;;;21.61;62.20;95445.94;4973107;28;20195;-84
2022/09/03 09:35:28;;;;;;;5.25;2.72;;;;;;;21.71;61.89;95448.66;4971931;28;20243;-84
2022/09/03 09:37:57;;;;;;;2.78;2.58;;;;;;;21.82;61.41;95446.91;4972444;28;20204;-85
2022/09/03 09:40:32;;;;;;;3.08;2.30;;;;;;;21.97;60.81;95439.94;4971997;28;21176;-84
2022/09/03 09:43:11;;;;;;;2.80;2.40;;;;;;;22.32;60.08;95444.66;4972683;28;20619;-85
2022/09/03 09:45:39;;;;;;;5.70;2.10;;;;;;;22.51;58.75;95449.53;4971931;28;20653;-84
2022/09/03 09:48:10;;;;;;;2.10;1.80;;;;;;;22.53;58.00;95440.31;4972106;28;20196;-84
2022/09/03 09:50:38;;;;;;;2.13;1.80;;;;;;;22.37;58.05;95436.81;4971773;28;20255;-84
2022/09/03 09:53:13;;;;;;;1.90;1.80;;;;;;;22.34;57.80;95445.19;4974297;28;20208;-84
2022/09/03 09:55:49;;;;;;;3.05;1.70;;;;;;;22.17;57.61;95443.78;4972700;28;20227;-84
2022/09/03 09:58:19;;;;;;;1.90;1.80;;;;;;;22.13;58.27;95446.09;4973920;28;20203;-85
2022/09/03 10:00:56;;;;;;;1.90;1.80;;;;;;;22.24;58.52;95447.78;4972320;28;20246;-84
2022/09/03 10:03:22;;;;;;;1.70;1.60;;;;;;;22.42;58.48;95443.16;4973874;28;20684;-85
2022/09/03 10:06:00;;;;;;;3.05;1.80;;;;;;;22.63;58.53;95442.22;4973084;28;20234;-85
2022/09/03 10:08:27;;;;;;;1.85;1.75;;;;;;;22.61;58.00;95439.84;4972699;28;20199;-84
2022/09/03 10:10:53;;;;;;;2.00;1.90;;;;;;;22.58;58.01;95444.81;4972405;28;20410;-84
2022/09/03 10:13:26;;;;;;;2.10;2.00;;;;;;;22.51;58.98;95439.03;4973784;28;20211;-85
2022/09/03 10:15:57;;;;;;;2.13;1.92;;;;;;;22.52;58.38;95437.94;4972092;28;20227;-85
2022/09/03 10:18:34;;;;;;;2.10;1.90;;;;;;;22.41;58.63;95434.50;4971408;28;20196;-85
2022/09/03 10:21:09;;;;;;;2.00;1.90;;;;;;;22.53;57.17;95442.16;4970785;28;20255;-85
2022/09/03 10:23:52;;;;;;;4.82;4.15;;;;;;;22.58;57.65;95442.97;4971031;28;20231;-85
2022/09/03 10:26:28;;;;;;;3.10;2.50;;;;;;;22.75;57.60;95435.72;4966919;28;20239;-84
2022/09/03 10:28:59;;;;;;;3.35;2.70;;;;;;;23.01;56.65;95443.72;4970493;28;20195;-85
2022/09/03 10:31:42;;;;;;;2.78;2.53;;;;;;;23.15;55.70;95444.03;4971334;28;20204;-85
2022/09/03 10:34:17;;;;;;;2.45;2.25;;;;;;;23.31;55.29;95445.63;4966066;28;20664;-84
2022/09/03 10:36:53;;;;;;;2.13;2.03;;;;;;;23.26;56.09;95443.81;4970024;28;20246;-85
2022/09/03 10:39:25;;;;;;;1.85;1.70;;;;;;;23.21;55.42;95437.75;4971205;28;20219;-84
2022/09/03 10:42:05;;;;;;;1.52;1.42;;;;;;;23.30;54.62;95433.53;4970359;28;20204;-83
2022/09/03 10:44:53;;;;;;;1.70;1.60;;;;;;;23.44;54.03;95426.75;4970231;28;20192;-83
2022/09/03 10:47:35;;;;;;;1.48;1.38;;;;;;;23.41;53.11;95416.75;4966741;28;20247;-83
2022/09/03 10:50:15;;;;;;;1.60;1.50;;;;;;;23.38;52.77;95419.91;4964594;28;20739;-85
2022/09/03 10:52:58;;;;;;;1.70;1.60;;;;;;;23.59;53.31;95418.91;4972120;28;20321;-83
2022/09/03 10:55:35;;;;;;;1.60;1.50;;;;;;;23.92;52.69;95407.06;4972352;28;20279;-82
2022/09/03 10:58:29;;;;;;;2.38;1.73;;;;;;;24.00;51.35;95413.66;4971453;28;20219;-82
2022/09/03 11:01:03;;;;;;;2.00;1.90;;;;;;;23.94;49.55;95412.84;4971443;28;20240;-82
2022/09/03 11:03:43;;;;;;;1.70;1.60;;;;;;;24.07;50.56;95425.47;4972115;28;20199;-83
2022/09/03 11:06:15;;;;;;;1.45;1.35;;;;;;;24.30;50.97;95420.72;4966420;28;20227;-82
2022/09/03 11:08:48;;;;;;;3.22;2.38;;;;;;;24.29;50.51;95413.88;4970574;28;20208;-83
2022/09/03 11:11:20;;;;;;;1.70;1.60;;;;;;;24.10;50.77;95413.63;4969315;28;20211;-85
2022/09/03 11:13:52;;;;;;;2.53;1.60;;;;;;;23.85;51.22;95417.09;4970245;28;20204;-85
2022/09/03 11:16:25;;;;;;;1.60;1.50;;;;;;;23.69;51.41;95404.97;4972118;28;20232;-85
2022/09/03 11:18:55;;;;;;;3.03;1.80;;;;;;;23.53;50.66;95396.28;4970011;28;20194;-84
2022/09/03 11:21:25;;;;;;;1.60;1.50;;;;;;;23.43;50.72;95398.91;4969351;28;20224;-84
2022/09/03 11:24:05;;;;;;;2.63;1.63;;;;;;;23.42;51.53;95395.47;4966737;28;20223;-84
2022/09/03 11:26:34;;;;;;;1.60;1.50;;;;;;;23.48;50.75;95388.38;4960324;28;20248;-84
2022/09/03 11:29:05;;;;;;;2.97;1.70;;;;;;;23.58;51.61;95391.03;4968159;28;20672;-84
2022/09/03 11:31:45;;;;;;;1.23;1.23;;;;;;;23.55;50.80;95388.16;4968857;28;20203;-84
2022/09/03 11:34:14;;;;;;;6.43;5.93;;;;;;;23.73;51.47;95390.25;4964642;28;20204;-85
2022/09/03 11:36:41;;;;;;;3.20;2.42;;;;;;;24.00;50.89;95398.66;4968207;28;20230;-86
2022/09/03 11:39:19;;;;;;;1.75;1.65;;;;;;;24.15;50.00;95394.41;4970323;28;20200;-85
2022/09/03 11:41:58;;;;;;;1.42;1.33;;;;;;;24.25;49.75;95402.31;4969806;28;20196;-85
2022/09/03 11:44:24;;;;;;;1.70;1.60;;;;;;;24.47;49.66;95394.88;4968670;28;20195;-85
2022/09/03 11:46:56;;;;;;;1.48;1.38;;;;;;;24.67;50.36;95386.91;4969346;28;20204;-86
2022/09/03 11:49:29;;;;;;;1.73;1.60;;;;;;;24.85;49.45;95380.25;4970294;28;20223;-85
2022/09/03 11:51:59;;;;;;;1.52;1.42;;;;;;;24.96;48.39;95373.91;4969497;28;20692;-85
2022/09/03 11:54:31;;;;;;;2.08;1.50;;;;;;;25.06;48.18;95371.22;4969884;28;20284;-85